Tiempo atmosférico en la estación meteorológica de Chandrexa De Queixa, Ourense (990 m.)



Fecha
DESCASC
Temp. máxima en grados centígrados (hora)
DESCASC
Temp. mínima en grados centígrados (hora)
DESCASC
Temp. media en grados centígrados
DESCASC
Racha de viento máxima en m/sg (hora)
DESCASC
Velocidad máxima media en intervalos de 10 minutos(hora)
DESCASC
Precipitaciones diarias en mm
DESCASC
Precipitaciones de 00:00 a 06:00 en mm
DESCASC
Precipitaciones de 06:00 a 12:00 en mm
DESCASC
Precipitaciones de 12:00 a 18:00 en mm
DESCASC
Precipitaciones de 18:00 a 24:00 en mm
DESCASC
23-06-2019 20 (16:40) 9.2 (06:20) 14.6 16.39 (02:10) 8.06 (16:30) 23.8 8.4 15.4 0 0
22-06-2019 25 (17:20) 8.3 (04:00) 16.7 16.67 (14:30) 10.83 (14:40) 0 0 0 0 0
21-06-2019 21.6 (17:20) 6.7 (08:10) 14.2 5.83 (17:20) 2.5 (15:30) 0 0 0 0 0
20-06-2019 16.8 (16:00) 8.7 (00:00) 12.7 7.22 (17:30) 2.78 (17:20) 3.2 0 0 0 3.2
19-06-2019 16.9 (17:50) 11.6 (00:00) 14.3 13.33 (02:30) 8.89 (04:10) 0 0 0 0 0
18-06-2019 17.8 (15:50) 11 (00:00) 14.4 20.28 (16:50) 12.5 (16:40) 4 0 0 0.2 3.8
17-06-2019 21.8 (12:40) 7.6 (00:00) 14.7 18.33 (21:50) 11.39 (21:40) 0 0 0 0 0
16-06-2019 23 (15:20) 3.3 (00:00) 13.1 8.33 (18:10) 4.17 (13:00) 0 0 0 0 0
15-06-2019 17.5 (15:50) 7.6 (00:00) 12.5 6.67 (18:10) 2.78 (14:40) 0 0 0 0 0
14-06-2019 14.9 (16:40) 2.8 (00:00) 8.8 6.94 (20:00) 3.33 (19:40) 0 0 0 0 0
13-06-2019 14.8 (17:50) 2.1 (00:00) 8.5 6.94 (16:50) 2.78 (14:20) 0 0 0 0 0
12-06-2019 14.1 (15:50) 2.9 (00:00) 8.5 7.78 (14:40) 3.06 (18:50) 0 0 0 0 0
11-06-2019 12.7 (17:50) 5.5 (00:00) 9.1 9.17 (13:20) 3.89 (15:10) 0.2 0 0.2 0 0
10-06-2019 15.1 (16:10) 4.3 (00:00) 9.7 7.5 (18:40) 3.33 (18:40) 0 0 0 0 0
09-06-2019 14.8 (13:40) 3.1 (00:00) 9 6.94 (16:40) 3.33 (20:20) 0 0 0 0 0
08-06-2019 15 (14:40) 1 (00:00) 8 6.67 (20:20) 2.5 (13:20) 0 0 0 0 0
07-06-2019 11 (14:20) 3.7 (00:00) 7.4 11.94 (00:30) 5 (00:50) 3.8 2.2 1.4 0.2 0
06-06-2019 11 (14:20) 5.1 (00:00) 8 29.72 (13:30) 18.89 (14:40) 16.2 0 0 10.2 6
05-06-2019 11.3 (13:40) 5.7 (00:00) 8.5 8.89 (16:30) 4.44 (16:20) 1.6 0.2 0.8 0.6 0
04-06-2019 14 (17:10) 7.6 (00:00) 10.8 10.56 (03:20) 6.67 (06:30) 2 0 1.6 0.4 0
03-06-2019 21.6 (15:10) 11.3 (00:00) 16.5 9.17 (14:30) 6.11 (17:00) 0 0 0 0 0
02-06-2019 24.5 (16:00) 8.3 (00:00) 16.4 10 (14:10) 5.28 (13:20) 0 0 0 0 0
01-06-2019 28.5 (15:00) 11.4 (00:00) 19.9 9.44 (14:10) 5.56 (14:10) 0 0 0 0 0
31-05-2019 29.1 (15:40) 11.7 (00:00) 20.4 6.67 (16:10) 3.33 (16:10) 0 0 0 0 0
30-05-2019 26.8 (16:40) 8.7 (00:00) 17.7 7.22 (15:30) 3.33 (15:10) 0 0 0 0 0
29-05-2019 23.3 (16:50) 3.9 (00:00) 13.6 7.5 (14:30) 3.89 (13:40) 0 0 0 0 0
28-05-2019 17.9 (16:20) 3.1 (00:00) 10.5 8.61 (17:00) 3.61 (16:50) 0 0 0 0 0
27-05-2019 18.6 (17:20) 7.9 (00:00) 13.3 9.17 (17:50) 4.17 (18:00) 0 0 0 0 0
26-05-2019 22.1 (15:10) 6.2 (00:00) 14.2 7.78 (17:00) 3.33 (17:40) 0 0 0 0 0
25-05-2019 19.9 (17:20) 3.8 (00:00) 11.8 6.67 (17:40) 3.33 (13:20) 0 0 0 0 0

Gráficas

Temp. máximas Temp. mínimas Temp. medias Precipitaciones Rachas de viento máximas Velocidades máximas media en intervalos de 10 minutos

Datos horarios

Fecha y hora oficial Temperatura (ºC) Velocidad del viento (km/h) Dirección del viento Racha (km/h) Dirección de racha Precipitación (mm) Presión (hPa) Tendencia (hPa) Humedad (%)
2019-06-23 23:00:00 15.1 3 Oeste 16 Sudoeste 0 -- -- 84
2019-06-23 22:00:00 15.9 9 Sudoeste 23 Sudoeste 0 -- -- 79
2019-06-23 21:00:00 16.5 8 Sudoeste 30 Sur 0 -- -- 80
2019-06-23 20:00:00 17.2 18 Sur 30 Sur 0 -- -- 78
2019-06-23 19:00:00 18.1 23 Sur 37 Sur 0 -- -- 75
2019-06-23 18:00:00 19.5 21 Sur 37 Sudoeste 0 -- -- 72
2019-06-23 17:00:00 19.3 27 Sur 44 Sur 0 -- -- 73
2019-06-23 16:00:00 19.3 27 Sur 43 Sur 0 -- -- 75
2019-06-23 15:00:00 17.6 22 Sur 38 Sur 0 -- -- 82
2019-06-23 14:00:00 17.2 25 Sur 41 Sur 0 -- -- 83
2019-06-23 13:00:00 15.9 5 Oeste 27 Sur 0 -- -- 89
2019-06-23 12:00:00 15.2 8 Sur 33 Sur 0.2 -- -- 90
2019-06-23 11:00:00 12.7 17 Sur 29 Sur 2.8 -- -- 100
2019-06-23 10:00:00 11 6 Nordeste 13 Norte 4.2 -- -- 100
2019-06-23 09:00:00 10.3 5 Nordeste 13 Norte 7.8 -- -- 100
2019-06-23 08:00:00 9.6 9 Norte 14 Norte 0.2 -- -- 100
2019-06-23 07:00:00 9.4 5 Nordeste 18 Norte 0.2 -- -- 100
2019-06-23 06:00:00 9.5 6 Nordeste 17 Norte 1.6 -- -- 100
2019-06-23 05:00:00 10.7 6 Nordeste 13 Sudoeste 1.6 -- -- 95
2019-06-23 04:00:00 11.1 5 Oeste 42 Sudoeste 3.2 -- -- 96
2019-06-23 03:00:00 10.7 22 Sur 59 Sur 2 -- -- 83
2019-06-23 02:00:00 16.1 21 Sudoeste 46 Sur 0 -- -- 39
2019-06-23 01:00:00 16.3 13 Sur 31 Sur 0 -- -- 40
2019-06-23 00:00:00 16.3 12 Sudoeste 31 Sur 0 -- -- 39
2019-06-22 23:00:00 16.8 12 Sur 30 Sudoeste 0 -- -- 38
2019-06-22 22:00:00 17.3 20 Sur 34 Sur 0 -- -- 39
2019-06-22 21:00:00 18.7 16 Sur 25 Sudoeste 0 -- -- 52
2019-06-22 20:00:00 19.9 11 Sudoeste 32 Oeste 0 -- -- 51
2019-06-22 19:00:00 21.2 22 Oeste 35 Sudoeste 0 -- -- 43
2019-06-22 18:00:00 23.6 19 Oeste 45 Sur 0 -- -- 40
2019-06-22 17:00:00 24.4 26 Sur 49 Sur 0 -- -- 40
2019-06-22 16:00:00 22.6 33 Sur 51 Sur 0 -- -- 45
2019-06-22 15:00:00 22.5 37 Sur 60 Sur 0 -- -- 42
2019-06-22 14:00:00 21.4 24 Sur 50 Sur 0 -- -- 48
2019-06-22 13:00:00 19.9 25 Sur 51 Sur 0 -- -- 54
2019-06-22 12:00:00 19.8 18 Sur 42 Sur 0 -- -- 51
2019-06-22 11:00:00 19.4 21 Sudeste 42 Sudeste 0 -- -- 53
2019-06-22 10:00:00 16.9 20 Sur 40 Sudeste 0 -- -- 59
2019-06-22 09:00:00 15.7 22 Sudeste 39 Este 0 -- -- 63
2019-06-22 08:00:00 14.8 17 Sudeste 42 Sur 0 -- -- 65
2019-06-22 07:00:00 14.5 22 Sur 43 Sur 0 -- -- 65
2019-06-22 06:00:00 13.7 16 Sur 31 Sudoeste 0 -- -- 69
2019-06-22 05:00:00 10.5 5 Sudoeste 17 Sudoeste 0 -- -- 85
2019-06-22 04:00:00 8.3 2 Sur 5 Sudoeste 0 -- -- 96
2019-06-22 03:00:00 8.9 2 Sudoeste 6 Sudoeste 0 -- -- 94
2019-06-22 02:00:00 9.5 3 Sur 5 Sudoeste 0 -- -- 90
2019-06-22 01:00:00 10.4 2 Sudoeste 11 Sur 0 -- -- 85
2019-06-22 00:00:00 11.7 5 Sudoeste 10 Sur 0 -- -- 81
2019-06-21 23:00:00 13.5 5 Sur 9 Sur 0 -- -- 75
2019-06-21 22:00:00 15.7 5 Sudeste 11 Norte 0 -- -- 68
2019-06-21 21:00:00 17.5 4 Norte 15 Noroeste 0 -- -- 58
2019-06-21 20:00:00 18.5 4 Noroeste 21 Norte 0 -- -- 56
2019-06-21 19:00:00 19.6 8 Noroeste 17 Noroeste 0 -- -- 54
2019-06-21 18:00:00 20.7 7 Noroeste 21 Sudoeste 0 -- -- 52
2019-06-21 17:00:00 21.5 5 Oeste 17 Oeste 0 -- -- 55
2019-06-21 16:00:00 20.5 5 Oeste 19 Oeste 0 -- -- 62
2019-06-21 15:00:00 18.4 5 Norte 15 Noroeste 0 -- -- 65
2019-06-21 14:00:00 18.8 5 Oeste 16 Norte 0 -- -- 66
2019-06-21 13:00:00 17.5 3 Noroeste 8 Sur 0 -- -- 68
2019-06-21 12:00:00 14.8 4 Nordeste 7 Norte 0 -- -- 80
2019-06-21 11:00:00 11.8 3 Sudoeste 8 Sudoeste 0 -- -- 94
2019-06-21 10:00:00 9.3 2 Sudoeste 5 Sur 0 -- -- 100
2019-06-21 09:00:00 7.5 3 Sur 8 Sur 0 -- -- 100
2019-06-21 08:00:00 6.8 8 Sur 11 Sur 0 -- -- 99
2019-06-21 07:00:00 7 0 Calma 9 Sur 0 -- -- 99
2019-06-21 06:00:00 7.8 5 Sur 8 Sudoeste 0 -- -- 97
2019-06-21 05:00:00 8.5 0 Calma 6 Sur 0 -- -- 96
2019-06-21 04:00:00 9 0 Calma 5 Sur 0 -- -- 95
2019-06-21 03:00:00 9.5 3 Sur 10 Sur 0 -- -- 96
2019-06-21 02:00:00 10 0 Calma 6 Sur 0 -- -- 98
2019-06-21 01:00:00 10.4 2 Sur 5 Sur 0 -- -- 96
2019-06-21 00:00:00 11 0 Calma 5 Nordeste 0 -- -- 96
2019-06-20 23:00:00 11.2 2 Nordeste 7 Norte 0 -- -- 94
2019-06-20 22:00:00 12 0 Calma 9 Nordeste 0 -- -- 94
2019-06-20 21:00:00 12.3 3 Nordeste 10 Nordeste 0 -- -- 92
2019-06-20 20:00:00 12.7 5 Nordeste 15 Norte 1.6 -- -- 94
2019-06-20 19:00:00 13.2 3 Norte 13 Norte 1.6 -- -- 92
2019-06-20 18:00:00 14.4 6 Norte 26 Noroeste 0 -- -- 82
2019-06-20 17:00:00 16.4 5 Norte 16 Norte 0 -- -- 74
2019-06-20 16:00:00 16.8 4 Noroeste 11 Nordeste 0 -- -- 71
2019-06-20 15:00:00 16.2 3 Norte 11 Norte 0 -- -- 75
2019-06-20 14:00:00 15.8 3 Norte 17 Nordeste 0 -- -- 76
2019-06-20 13:00:00 15.3 7 Norte 15 Nordeste 0 -- -- 78
2019-06-20 12:00:00 15.4 6 Norte 13 Norte 0 -- -- 78
2019-06-20 11:00:00 13.5 2 Sur 8 Sudoeste 0 -- -- 86
2019-06-20 10:00:00 11.7 0 Calma 4 Norte 0 -- -- 93
2019-06-20 09:00:00 10 0 Calma 3 Sudoeste 0 -- -- 96
2019-06-20 08:00:00 9.2 0 Calma 8 Sur 0 -- -- 97
2019-06-20 07:00:00 8.8 3 Sur 8 Sur 0 -- -- 95
2019-06-20 06:00:00 8.8 0 Calma 4 Sudoeste 0 -- -- 96
2019-06-20 05:00:00 9 0 Calma 5 Sudoeste 0 -- -- 97
2019-06-20 04:00:00 9.6 4 Sudoeste 7 Sur 0 -- -- 93
2019-06-20 03:00:00 10.2 3 Sur 3 Sur 0 -- -- 95
2019-06-20 02:00:00 10.2 0 Calma 5 Sur 0 -- -- 95
2019-06-20 01:00:00 10.5 0 Calma 6 Sudoeste 0 -- -- 94
2019-06-20 00:00:00 11.6 3 Sur 5 Sur 0 -- -- 92
2019-06-19 23:00:00 12.7 2 Sudoeste 16 Noroeste 0 -- -- 88
2019-06-19 22:00:00 13.4 4 Norte 13 Norte 0 -- -- 85
2019-06-19 21:00:00 14.5 4 Oeste 12 Oeste 0 -- -- 80
2019-06-19 20:00:00 15.3 5 Oeste 23 Oeste 0 -- -- 76
2019-06-19 19:00:00 16.4 10 Sudoeste 24 Sudoeste 0 -- -- 68
2019-06-19 18:00:00 16.8 6 Oeste 33 Sudoeste 0 -- -- 70
2019-06-19 17:00:00 16.4 13 Oeste 30 Sudoeste 0 -- -- 71
2019-06-19 16:00:00 15.9 9 Sudoeste 25 Sudoeste 0 -- -- 74
2019-06-19 15:00:00 16.1 12 Sudoeste 26 Sudoeste 0 -- -- 71
2019-06-19 14:00:00 15.3 12 Sudoeste 22 Oeste 0 -- -- 76
2019-06-19 13:00:00 15.3 9 Oeste 23 Oeste 0 -- -- 74
2019-06-19 12:00:00 15.4 8 Oeste 26 Oeste 0 -- -- 72
2019-06-19 11:00:00 15.3 10 Sudoeste 27 Sur 0 -- -- 74
2019-06-19 10:00:00 14.3 14 Sur 27 Sudeste 0 -- -- 78
2019-06-19 09:00:00 12.9 7 Sudoeste 16 Sur 0 -- -- 90
2019-06-19 08:00:00 12.2 13 Sur 21 Sur 0 -- -- 90
2019-06-19 07:00:00 12.1 13 Sur 35 Sur 0 -- -- 88
2019-06-19 06:00:00 12.3 18 Sudoeste 40 Sur 0 -- -- 88
2019-06-19 05:00:00 11.9 19 Sudoeste 44 Sudoeste 0 -- -- 88
2019-06-19 04:00:00 11.7 28 Sur 47 Sur 0 -- -- 91
2019-06-19 03:00:00 11.8 30 Sur 48 Sur 0 -- -- 90
2019-06-19 02:00:00 12.2 24 Sur 36 Sudoeste 0 -- -- 90
2019-06-19 01:00:00 12.5 22 Sudoeste 36 Sur 0 -- -- 88
2019-06-19 00:00:00 12.7 26 Sudoeste 46 Sur 0 -- -- 91
2019-06-18 23:00:00 12.8 16 Sudoeste 41 Sudoeste 0.2 -- -- 93
2019-06-18 22:00:00 12.9 20 Sudoeste 45 Sudoeste 0 -- -- 94
2019-06-18 21:00:00 13.2 16 Sur 47 Sur 0.6 -- -- 96
2019-06-18 20:00:00 13.5 24 Sur 60 Sur 2.6 -- -- 95
2019-06-18 19:00:00 13.5 26 Sur 60 Sur 0.4 -- -- 94
2019-06-18 18:00:00 14 35 Sur 66 Sur 0.2 -- -- 89
2019-06-18 17:00:00 15.4 40 Sur 73 Sudoeste 0 -- -- 81
2019-06-18 16:00:00 17.6 31 Sur 54 Sur 0 -- -- 63
2019-06-18 15:00:00 15.5 24 Sur 70 Sur 0 -- -- 77
2019-06-18 14:00:00 16.3 35 Sur 68 Sur 0 -- -- 66
2019-06-18 13:00:00 14.2 33 Sur 63 Sur 0 -- -- 79
2019-06-18 12:00:00 13.7 29 Sur 53 Sudeste 0 -- -- 81
2019-06-18 11:00:00 14.2 21 Sur 45 Sudeste 0 -- -- 78
2019-06-18 10:00:00 12.9 17 Sur 46 Sur 0 -- -- 72
2019-06-18 09:00:00 12.2 17 Sur 44 Sur 0 -- -- 76
2019-06-18 08:00:00 14.1 23 Sur 37 Sur 0 -- -- 44
2019-06-18 07:00:00 14.2 19 Sur 40 Sur 0 -- -- 39
2019-06-18 06:00:00 15.1 28 Sur 54 Sur 0 -- -- 50
2019-06-18 05:00:00 15 26 Sur 40 Sur 0 -- -- 53
2019-06-18 04:00:00 14 10 Sur 28 Sur 0 -- -- 55
2019-06-18 03:00:00 13.9 4 Sudoeste 19 Sur 0 -- -- 55
2019-06-18 02:00:00 14.4 6 Sur 18 Sur 0 -- -- 52
2019-06-18 01:00:00 15.1 10 Sur 23 Sur 0 -- -- 50
2019-06-18 00:00:00 15.6 8 Sur 26 Sudeste 0 -- -- 48
2019-06-17 23:00:00 16 15 Sur 51 Sur 0 -- -- 45
2019-06-17 22:00:00 17 41 Sur 66 Sur 0 -- -- 40
2019-06-17 21:00:00 17.9 31 Sur 49 Sur 0 -- -- 35
2019-06-17 20:00:00 17.8 29 Sur 41 Sur 0 -- -- 36
2019-06-17 19:00:00 18.5 22 Sur 42 Sur 0 -- -- 33
2019-06-17 18:00:00 19.4 28 Sur 49 Sudoeste 0 -- -- 28
2019-06-17 17:00:00 19.8 14 Sur 47 Sur 0 -- -- 42
2019-06-17 16:00:00 18.8 29 Sur 53 Sur 0 -- -- 41
2019-06-17 15:00:00 19.2 24 Sur 37 Sur 0 -- -- 35
2019-06-17 14:00:00 20.3 16 Sudoeste 41 Sur 0 -- -- 32
2019-06-17 13:00:00 21.3 18 Sudeste 38 Sur 0 -- -- 33
2019-06-17 12:00:00 20.5 17 Sur 36 Sur 0 -- -- 44
2019-06-17 11:00:00 18 23 Sudeste 44 Sudeste 0 -- -- 48
2019-06-17 10:00:00 15.5 16 Sur 34 Sur 0 -- -- 65
2019-06-17 09:00:00 12.7 4 Sudoeste 12 Sur 0 -- -- 87
2019-06-17 08:00:00 7.9 3 Sur 7 Sur 0 -- -- 100
2019-06-17 07:00:00 7.7 0 Calma 4 Sur 0 -- -- 98
2019-06-17 06:00:00 8.4 0 Calma 4 Oeste 0 -- -- 96
2019-06-17 05:00:00 8.9 3 Sur 4 Sudoeste 0 -- -- 94
2019-06-17 04:00:00 9.5 0 Calma 8 Sur 0 -- -- 94
2019-06-17 03:00:00 10.3 2 Sudoeste 6 Sur 0 -- -- 92
2019-06-17 02:00:00 11.3 3 Sudoeste 8 Sudoeste 0 -- -- 90
2019-06-17 01:00:00 12.6 0 Calma 5 Sudoeste 0 -- -- 87
2019-06-17 00:00:00 14.2 2 Sur 9 Noroeste 0 -- -- 82
2019-06-16 23:00:00 15.5 0 Calma 13 Nordeste 0 -- -- 80
2019-06-16 22:00:00 17.1 3 Oeste 15 Norte 0 -- -- 69
2019-06-16 21:00:00 18.8 5 Noroeste 19 Noroeste 0 -- -- 57
2019-06-16 20:00:00 20 8 Noroeste 22 Noroeste 0 -- -- 53
2019-06-16 19:00:00 21.6 8 Noroeste 30 Oeste 0 -- -- 47
2019-06-16 18:00:00 22.7 11 Sudoeste 22 Sudoeste 0 -- -- 38
2019-06-16 17:00:00 22.2 8 Noroeste 17 Noroeste 0 -- -- 47
2019-06-16 16:00:00 22.7 4 Oeste 13 Norte 0 -- -- 46
2019-06-16 15:00:00 22.7 6 Sudoeste 24 Oeste 0 -- -- 40
2019-06-16 14:00:00 22.4 7 Sudoeste 23 Sudeste 0 -- -- 42
2019-06-16 13:00:00 21.2 15 Sur 26 Sur 0 -- -- 45
2019-06-16 12:00:00 17.7 6 Norte 13 Norte 0 -- -- 62
2019-06-16 11:00:00 13.5 9 Norte 13 Norte 0 -- -- 75
2019-06-16 10:00:00 9 0 Calma -- -- 0 -- -- 86
2019-06-16 09:00:00 7.7 0 Calma 2 Sudoeste 0 -- -- 86
2019-06-16 08:00:00 3.7 0 Calma 4 Sudoeste 0 -- -- 98
2019-06-16 07:00:00 3.4 2 Sudoeste 5 Oeste 0 -- -- 97
2019-06-16 06:00:00 3.8 3 Sudoeste 5 Sudoeste 0 -- -- 97
2019-06-16 05:00:00 4.2 3 Sudoeste 5 Sudoeste 0 -- -- 95
2019-06-16 04:00:00 5 0 Calma 8 Sur 0 -- -- 96
2019-06-16 03:00:00 5.7 4 Sur 6 Sur 0 -- -- 93
2019-06-16 02:00:00 6.8 3 Sur 8 Sur 0 -- -- 91
2019-06-16 01:00:00 8.2 3 Sudoeste 5 Sur 0 -- -- 88
2019-06-16 00:00:00 9.5 3 Sur 5 Sudoeste 0 -- -- 84
2019-06-15 23:00:00 10.7 2 Sur 11 Norte 0 -- -- 82
2019-06-15 22:00:00 11.7 0 Calma 15 Noroeste 0 -- -- 75
2019-06-15 21:00:00 13.9 4 Norte 16 Norte 0 -- -- 65
2019-06-15 20:00:00 14.9 5 Noroeste 17 Noroeste 0 -- -- 62
2019-06-15 19:00:00 16.2 4 Noroeste 24 Norte 0 -- -- 58
2019-06-15 18:00:00 16.5 8 Noroeste 20 Sudoeste 0 -- -- 55
2019-06-15 17:00:00 17.1 6 Oeste 22 Sudoeste 0 -- -- 51
2019-06-15 16:00:00 17.3 7 Noroeste 21 Norte 0 -- -- 52
2019-06-15 15:00:00 16.2 5 Oeste 23 Oeste 0 -- -- 54
2019-06-15 14:00:00 16.5 7 Oeste 19 Oeste 0 -- -- 53
2019-06-15 13:00:00 14.6 8 Oeste 19 Oeste 0 -- -- 58
2019-06-15 12:00:00 12.6 3 Noroeste 11 Sudoeste 0 -- -- 65
2019-06-15 11:00:00 10.7 4 Sudoeste 10 Sudoeste 0 -- -- 72
2019-06-15 10:00:00 8.3 0 Calma 10 Oeste 0 -- -- 88
2019-06-15 09:00:00 8 2 Oeste 8 Oeste 0 -- -- 90
2019-06-15 08:00:00 7.8 3 Oeste 13 Noroeste 0 -- -- 88
2019-06-15 07:00:00 8 0 Calma 7 Sudoeste 0 -- -- 87
2019-06-15 06:00:00 8 0 Calma 13 Oeste 0 -- -- 88
2019-06-15 05:00:00 8.1 0 Calma 8 Sudoeste 0 -- -- 90
2019-06-15 04:00:00 8.1 3 Sudoeste 7 Sudeste 0 -- -- 88
2019-06-15 03:00:00 8 3 Sur 10 Sudoeste 0 -- -- 89
2019-06-15 02:00:00 7.6 5 Sur 15 Sudeste 0 -- -- 88
2019-06-15 01:00:00 7.9 0 Calma 11 Noroeste 0 -- -- 87
2019-06-15 00:00:00 8.2 2 Oeste 12 Sudoeste 0 -- -- 87
2019-06-14 23:00:00 8.8 2 Oeste 21 Sur 0 -- -- 84
2019-06-14 22:00:00 9.6 12 Sudoeste 21 Sudoeste 0 -- -- 78
2019-06-14 21:00:00 10.7 6 Oeste 22 Oeste 0 -- -- 72
2019-06-14 20:00:00 11.5 10 Oeste 25 Oeste 0 -- -- 70
2019-06-14 19:00:00 12.5 6 Oeste 24 Oeste 0 -- -- 66
2019-06-14 18:00:00 11.9 5 Oeste 21 Oeste 0 -- -- 70
2019-06-14 17:00:00 13.1 6 Oeste 22 Oeste 0 -- -- 63
2019-06-14 16:00:00 14.3 7 Oeste 21 Oeste 0 -- -- 62
2019-06-14 15:00:00 14.1 8 Oeste 22 Sudoeste 0 -- -- 54
2019-06-14 14:00:00 13.3 8 Sudoeste 18 Oeste 0 -- -- 63
2019-06-14 13:00:00 11.6 3 Oeste 18 Oeste 0 -- -- 72
2019-06-14 12:00:00 12.4 4 Norte 15 Norte 0 -- -- 69
2019-06-14 11:00:00 10.8 6 Noroeste 14 Noroeste 0 -- -- 74
2019-06-14 10:00:00 7.3 2 Sur 5 Oeste 0 -- -- 92
2019-06-14 09:00:00 4.8 2 Sudoeste 8 Oeste 0 -- -- 99
2019-06-14 08:00:00 3.1 2 Sudoeste 8 Oeste 0 -- -- 98
2019-06-14 07:00:00 3.1 0 Calma 6 Sudoeste 0 -- -- 97
2019-06-14 06:00:00 3.8 2 Sur 5 Sur 0 -- -- 97
2019-06-14 05:00:00 4 2 Sur 9 Sudoeste 0 -- -- 95
2019-06-14 04:00:00 4.9 5 Sur 9 Sur 0 -- -- 90
2019-06-14 03:00:00 6.3 3 Sur 6 Sudoeste 0 -- -- 90
2019-06-14 02:00:00 7.5 0 Calma 4 Nordeste 0 -- -- 90
2019-06-14 01:00:00 8.2 0 Calma 6 Norte 0 -- -- 88
2019-06-14 00:00:00 8.6 2 Noroeste 8 Nordeste 0 -- -- 86
2019-06-13 23:00:00 8.8 3 Nordeste 10 Nordeste 0 -- -- 83
2019-06-13 22:00:00 10 3 Norte 15 Noroeste 0 -- -- 71
2019-06-13 21:00:00 11.7 4 Noroeste 18 Norte 0 -- -- 64
2019-06-13 20:00:00 12.6 9 Norte 22 Noroeste 0 -- -- 60
2019-06-13 19:00:00 13.3 5 Noroeste 25 Sudoeste 0 -- -- 59
2019-06-13 18:00:00 14.5 7 Noroeste 23 Oeste 0 -- -- 55
2019-06-13 17:00:00 13.4 7 Oeste 25 Noroeste 0 -- -- 54
2019-06-13 16:00:00 13.8 9 Noroeste 21 Noroeste 0 -- -- 57
2019-06-13 15:00:00 12.9 4 Oeste 22 Noroeste 0 -- -- 61
2019-06-13 14:00:00 12.3 4 Noroeste 10 Noroeste 0 -- -- 69
2019-06-13 13:00:00 9.9 4 Norte 15 Nordeste 0 -- -- 71
2019-06-13 12:00:00 10.1 7 Norte 17 Norte 0 -- -- 73
2019-06-13 11:00:00 9.3 5 Norte 14 Noroeste 0 -- -- 75
2019-06-13 10:00:00 7.9 2 Norte 5 Norte 0 -- -- 82
2019-06-13 09:00:00 5.9 0 Calma 4 Sudoeste 0 -- -- 88
2019-06-13 08:00:00 2.5 0 Calma 5 Oeste 0 -- -- 98
2019-06-13 07:00:00 2.4 2 Sudoeste 5 Sudoeste 0 -- -- 96
2019-06-13 06:00:00 2.8 2 Sur 7 Sur 0 -- -- 95
2019-06-13 05:00:00 3.6 4 Sur 9 Sur 0 -- -- 93
2019-06-13 04:00:00 5 3 Sudoeste 5 Sudoeste 0 -- -- 92
2019-06-13 03:00:00 6.2 2 Oeste 6 Sur 0 -- -- 93
2019-06-13 02:00:00 6.8 2 Norte 8 Nordeste 0 -- -- 90
2019-06-13 01:00:00 7.2 3 Nordeste 15 Nordeste 0 -- -- 91
2019-06-13 00:00:00 7.7 5 Nordeste 9 Nordeste 0 -- -- 89
2019-06-12 23:00:00 8.4 3 Norte 13 Norte 0 -- -- 83
2019-06-12 22:00:00 9.2 2 Nordeste 13 Noroeste 0 -- -- 73
2019-06-12 21:00:00 10.7 5 Norte 18 Noroeste 0 -- -- 65
2019-06-12 20:00:00 12.4 8 Norte 22 Norte 0 -- -- 57
2019-06-12 19:00:00 13.2 7 Noroeste 24 Noroeste 0 -- -- 54
2019-06-12 18:00:00 13.3 7 Noroeste 21 Oeste 0 -- -- 52
2019-06-12 17:00:00 13.3 9 Noroeste 23 Noroeste 0 -- -- 51
2019-06-12 16:00:00 13.9 6 Noroeste 22 Nordeste 0 -- -- 51
2019-06-12 15:00:00 13 5 Noroeste 28 Noroeste 0 -- -- 55
2019-06-12 14:00:00 12.6 5 Noroeste 17 Norte 0 -- -- 58
2019-06-12 13:00:00 9.9 3 Norte 15 Nordeste 0 -- -- 62
2019-06-12 12:00:00 10.5 6 Norte 19 Nordeste 0 -- -- 60
2019-06-12 11:00:00 8.7 9 Nordeste 19 Nordeste 0 -- -- 69
2019-06-12 10:00:00 6.8 6 Nordeste 15 Nordeste 0 -- -- 79
2019-06-12 09:00:00 5.6 3 Norte 6 Norte 0 -- -- 91
2019-06-12 08:00:00 3.9 0 Calma 3 Oeste 0 -- -- 96
2019-06-12 07:00:00 3.1 0 Calma 3 Sudeste 0 -- -- 96
2019-06-12 06:00:00 3.2 0 Calma 7 Nordeste 0 -- -- 95
2019-06-12 05:00:00 4.5 5 Norte 13 Norte 0 -- -- 94
2019-06-12 04:00:00 4.9 4 Nordeste 10 Norte 0 -- -- 95
2019-06-12 03:00:00 5 0 Calma 6 Nordeste 0 -- -- 95
2019-06-12 02:00:00 4.9 0 Calma 8 Nordeste 0 -- -- 95
2019-06-12 01:00:00 5 2 Este 9 Norte 0 -- -- 93
2019-06-12 00:00:00 6 5 Norte 12 Norte 0 -- -- 88
2019-06-11 23:00:00 6.7 2 Norte 16 Norte 0 -- -- 83
2019-06-11 22:00:00 8.2 4 Norte 19 Norte 0 -- -- 75
2019-06-11 21:00:00 10.1 6 Norte 26 Norte 0 -- -- 66
2019-06-11 20:00:00 10.7 10 Norte 27 Norte 0 -- -- 59
2019-06-11 19:00:00 11.8 10 Norte 32 Noroeste 0 -- -- 59
2019-06-11 18:00:00 12.6 13 Norte 32 Norte 0 -- -- 56
2019-06-11 17:00:00 11.9 10 Norte 29 Nordeste 0 -- -- 57
2019-06-11 16:00:00 12.1 13 Norte 31 Nordeste 0 -- -- 62
2019-06-11 15:00:00 11.1 12 Nordeste 32 Norte 0 -- -- 63
2019-06-11 14:00:00 10.9 12 Norte 33 Norte 0 -- -- 64
2019-06-11 13:00:00 10.3 9 Norte 27 Norte 0 -- -- 67
2019-06-11 12:00:00 8.4 9 Nordeste 26 Norte 0 -- -- 77
2019-06-11 11:00:00 6.9 8 Norte 21 Norte 0 -- -- 84
2019-06-11 10:00:00 6.2 8 Norte 20 Norte 0 -- -- 92
2019-06-11 09:00:00 5.8 4 Norte 16 Norte 0.2 -- -- 97
2019-06-11 08:00:00 5.5 6 Norte 16 Nordeste 0 -- -- 98
2019-06-11 07:00:00 5.6 4 Norte 19 Norte 0 -- -- 94
2019-06-11 06:00:00 5.9 4 Norte 19 Nordeste 0 -- -- 93
2019-06-11 05:00:00 6.1 6 Norte 21 Nordeste 0 -- -- 91
2019-06-11 04:00:00 6.4 3 Nordeste 9 Nordeste 0 -- -- 91
2019-06-11 03:00:00 6.5 2 Norte 10 Norte 0 -- -- 88
2019-06-11 02:00:00 6.8 6 Norte 15 Norte 0 -- -- 89
2019-06-11 01:00:00 7.4 4 Norte 17 Noroeste 0 -- -- 93
2019-06-11 00:00:00 8.3 4 Norte 18 Norte 0 -- -- 90
2019-06-10 23:00:00 9.6 8 Norte 20 Norte 0 -- -- 82
2019-06-10 22:00:00 10.6 7 Norte 21 Noroeste 0 -- -- 75
2019-06-10 21:00:00 11.6 8 Norte 22 Noroeste 0 -- -- 68
2019-06-10 20:00:00 12.6 5 Norte 21 Noroeste 0 -- -- 66
2019-06-10 19:00:00 13.2 7 Norte 27 Noroeste 0 -- -- 61
2019-06-10 18:00:00 14.2 7 Noroeste 26 Oeste 0 -- -- 58
2019-06-10 17:00:00 14 9 Noroeste 22 Noroeste 0 -- -- 55
2019-06-10 16:00:00 14.9 6 Oeste 22 Noroeste 0 -- -- 52
2019-06-10 15:00:00 14.6 6 Noroeste 21 Oeste 0 -- -- 58
2019-06-10 14:00:00 14.2 6 Norte 22 Norte 0 -- -- 60
2019-06-10 13:00:00 13.4 6 Norte 19 Norte 0 -- -- 60
2019-06-10 12:00:00 12.9 3 Norte 10 Nordeste 0 -- -- 62
2019-06-10 11:00:00 9.6 2 Nordeste 8 Nordeste 0 -- -- 74
2019-06-10 10:00:00 8.1 0 Calma 5 Nordeste 0 -- -- 85
2019-06-10 09:00:00 6.4 0 Calma 3 Sudeste 0 -- -- 100
2019-06-10 08:00:00 5 0 Calma 3 Oeste 0 -- -- 100
2019-06-10 07:00:00 4.7 0 Calma 4 Sudoeste 0 -- -- 100
2019-06-10 06:00:00 4.3 0 Calma 7 Sudeste 0 -- -- 97
2019-06-10 05:00:00 4.7 0 Calma 12 Sur 0 -- -- 96
2019-06-10 04:00:00 5.4 3 Sur 10 Sur 0 -- -- 96
2019-06-10 03:00:00 6 4 Sur 8 Sur 0 -- -- 93
2019-06-10 02:00:00 6.7 0 Calma 2 Nordeste 0 -- -- 94
2019-06-10 01:00:00 7.9 0 Calma 2 Este 0 -- -- 91
2019-06-10 00:00:00 8.4 0 Calma 6 Nordeste 0 -- -- 91
2019-06-09 23:00:00 9 3 Nordeste 9 Norte 0 -- -- 88
2019-06-09 22:00:00 10 4 Norte 19 Norte 0 -- -- 84
2019-06-09 21:00:00 10.9 8 Norte 24 Noroeste 0 -- -- 81
2019-06-09 20:00:00 11.9 9 Norte 19 Norte 0 -- -- 76
2019-06-09 19:00:00 14 9 Noroeste 24 Noroeste 0 -- -- 64
2019-06-09 18:00:00 14.6 6 Noroeste 20 Oeste 0 -- -- 58
2019-06-09 17:00:00 13.9 7 Norte 25 Noroeste 0 -- -- 59
2019-06-09 16:00:00 14.4 10 Noroeste 23 Noroeste 0 -- -- 58
2019-06-09 15:00:00 14.5 7 Noroeste 18 Oeste 0 -- -- 66
2019-06-09 14:00:00 13.9 5 Oeste 16 Oeste 0 -- -- 63
2019-06-09 13:00:00 13.7 5 Oeste 16 Oeste 0 -- -- 59
2019-06-09 12:00:00 12.3 4 Noroeste 11 Noroeste 0 -- -- 71
2019-06-09 11:00:00 10.1 4 Norte 13 Norte 0 -- -- 81
2019-06-09 10:00:00 8.6 2 Sur 5 Sur 0 -- -- 90
2019-06-09 09:00:00 5.8 0 Calma 5 Sudoeste 0 -- -- 94
2019-06-09 08:00:00 3.4 3 Sudoeste 6 Oeste 0 -- -- 100
2019-06-09 07:00:00 3.1 3 Sudoeste 9 Sudoeste 0 -- -- 99
2019-06-09 06:00:00 3.4 3 Sudoeste 9 Sudoeste 0 -- -- 98
2019-06-09 05:00:00 3.9 3 Sudoeste 8 Sudoeste 0 -- -- 97
2019-06-09 04:00:00 4.2 4 Sudoeste 7 Sudoeste 0 -- -- 94
2019-06-09 03:00:00 5.1 2 Sudoeste 10 Sur 0 -- -- 96
2019-06-09 02:00:00 6 5 Sur 8 Sur 0 -- -- 93
2019-06-09 01:00:00 6.9 3 Sur 9 Sur 0 -- -- 92
2019-06-09 00:00:00 7.9 0 Calma 5 Sur 0 -- -- 89
2019-06-08 23:00:00 8.4 2 Sudoeste 7 Sur 0 -- -- 89
2019-06-08 22:00:00 9.6 0 Calma 17 Noroeste 0 -- -- 82
2019-06-08 21:00:00 11.1 6 Noroeste 24 Noroeste 0 -- -- 76
2019-06-08 20:00:00 12.8 5 Noroeste 17 Noroeste 0 -- -- 60
2019-06-08 19:00:00 12.8 5 Norte 12 Nordeste 0 -- -- 68
2019-06-08 18:00:00 13.1 6 Norte 18 Norte 0 -- -- 67
2019-06-08 17:00:00 13.2 6 Norte 17 Norte 0 -- -- 67
2019-06-08 16:00:00 14.5 5 Norte 18 Noroeste 0 -- -- 64
2019-06-08 15:00:00 14.6 4 Norte 17 Oeste 0 -- -- 67
2019-06-08 14:00:00 14.5 5 Noroeste 15 Norte 0 -- -- 67
2019-06-08 13:00:00 13.5 8 Norte 16 Nordeste 0 -- -- 64
2019-06-08 12:00:00 10.5 8 Nordeste 12 Norte 0 -- -- 77
2019-06-08 11:00:00 8.5 5 Norte 10 Nordeste 0 -- -- 85
2019-06-08 10:00:00 6 4 Norte 6 Nordeste 0 -- -- 89
2019-06-08 09:00:00 3.8 0 Calma 5 Oeste 0 -- -- 99
2019-06-08 08:00:00 1.5 2 Sur 4 Sudoeste 0 -- -- 100
2019-06-08 07:00:00 1.1 3 Sur 4 Sur 0 -- -- 99
2019-06-08 06:00:00 1.1 0 Calma 4 Sudoeste 0 -- -- 98
2019-06-08 05:00:00 1.5 2 Sudoeste 4 Sur 0 -- -- 98
2019-06-08 04:00:00 1.8 0 Calma 5 Sur 0 -- -- 98
2019-06-08 03:00:00 2.2 2 Sur 5 Sur 0 -- -- 96
2019-06-08 02:00:00 2.7 0 Calma 12 Sur 0 -- -- 93
2019-06-08 01:00:00 3.7 4 Sur 8 Sur 0 -- -- 92
2019-06-08 00:00:00 5 3 Sudeste 12 Sur 0 -- -- 90
2019-06-07 23:00:00 6.3 2 Sur 6 Sur 0 -- -- 88
2019-06-07 22:00:00 7.9 0 Calma 16 Oeste 0 -- -- 81
2019-06-07 21:00:00 9.3 6 Noroeste 18 Oeste 0 -- -- 71
2019-06-07 20:00:00 9.8 5 Oeste 24 Oeste 0 -- -- 72
2019-06-07 19:00:00 9.9 7 Noroeste 22 Noroeste 0 -- -- 76
2019-06-07 18:00:00 9.9 6 Oeste 31 Oeste 0 -- -- 81
2019-06-07 17:00:00 10.4 8 Oeste 22 Oeste 0 -- -- 72
2019-06-07 16:00:00 9.6 6 Sudoeste 20 Sudoeste 0.2 -- -- 80
2019-06-07 15:00:00 7 8 Noroeste 38 Noroeste 0 -- -- 87
2019-06-07 14:00:00 10.8 13 Sudoeste 31 Sudoeste 0 -- -- 66
2019-06-07 13:00:00 8.6 9 Oeste 22 Oeste 0 -- -- 77
2019-06-07 12:00:00 7.4 6 Oeste 20 Oeste 0 -- -- 85
2019-06-07 11:00:00 6.2 4 Oeste 19 Noroeste 0 -- -- 94
2019-06-07 10:00:00 5.4 3 Noroeste 16 Sudoeste 0.2 -- -- 94
2019-06-07 09:00:00 4.1 6 Sur 17 Oeste 0 -- -- 97
2019-06-07 08:00:00 3.9 4 Oeste 18 Sudoeste 0.2 -- -- 98
2019-06-07 07:00:00 3.7 3 Oeste 22 Oeste 1 -- -- 98
2019-06-07 06:00:00 4.2 6 Oeste 32 Oeste 0.6 -- -- 98
2019-06-07 05:00:00 4.4 11 Oeste 32 Noroeste 0.2 -- -- 99
2019-06-07 04:00:00 4.5 9 Oeste 27 Oeste 0.2 -- -- 98
2019-06-07 03:00:00 4.7 9 Oeste 36 Oeste 0.2 -- -- 97
2019-06-07 02:00:00 5 9 Oeste 35 Sudoeste 0.6 -- -- 96
2019-06-07 01:00:00 5.2 16 Sudoeste 43 Sudoeste 0.4 -- -- 95
2019-06-07 00:00:00 5.4 8 Oeste 42 Oeste 0.4 -- -- 95
2019-06-06 23:00:00 6.1 19 Sudoeste 47 Oeste 0.2 -- -- 91
2019-06-06 22:00:00 6.4 16 Sudoeste 50 Sudoeste 0.2 -- -- 94
2019-06-06 21:00:00 7.2 13 Oeste 41 Sudoeste 0 -- -- 92
2019-06-06 20:00:00 8 18 Oeste 54 Sur 0.8 -- -- 92
2019-06-06 19:00:00 8.1 28 Sudoeste 66 Sudoeste 4.4 -- -- 96
2019-06-06 18:00:00 9 49 Sur 95 Sur 2.4 -- -- 96
2019-06-06 17:00:00 8.5 46 Sur 84 Sur 6 -- -- 96
2019-06-06 16:00:00 8.7 52 Sur 84 Sur 1.8 -- -- 93
2019-06-06 15:00:00 9.9 55 Sur 96 Sur 0 -- -- 86
2019-06-06 14:00:00 10.1 65 Sur 107 Sur 0 -- -- 77
2019-06-06 13:00:00 9.6 63 Sur 93 Sur 0 -- -- 74
2019-06-06 12:00:00 9.3 44 Sur 83 Sudeste 0 -- -- 75
2019-06-06 11:00:00 8.2 35 Sur 66 Sudeste 0 -- -- 78
2019-06-06 10:00:00 6.9 32 Sur 57 Sur 0 -- -- 84
2019-06-06 09:00:00 6.7 32 Sur 48 Sur 0 -- -- 83
2019-06-06 08:00:00 6.2 20 Sur 35 Sur 0 -- -- 85
2019-06-06 07:00:00 5.7 8 Sur 21 Sur 0 -- -- 86
2019-06-06 06:00:00 5.7 14 Sur 19 Sudeste 0 -- -- 85
2019-06-06 05:00:00 5.3 8 Sur 16 Sur 0 -- -- 90
2019-06-06 04:00:00 5.2 6 Sur 16 Sudoeste 0 -- -- 88
2019-06-06 03:00:00 5.6 6 Sur 12 Sudoeste 0 -- -- 90
2019-06-06 02:00:00 5.5 4 Sur 8 Sur 0 -- -- 89
2019-06-06 01:00:00 5.7 0 Calma 9 Oeste 0 -- -- 91
2019-06-06 00:00:00 6.3 3 Oeste 12 Oeste 0 -- -- 89
2019-06-05 23:00:00 6.7 6 Sudoeste 23 Sudoeste 0 -- -- 84
2019-06-05 22:00:00 7.4 10 Sudoeste 19 Oeste 0 -- -- 82
2019-06-05 21:00:00 7.9 5 Oeste 22 Oeste 0 -- -- 82
2019-06-05 20:00:00 9.3 7 Oeste 25 Oeste 0 -- -- 74
2019-06-05 19:00:00 9.5 13 Oeste 26 Oeste 0 -- -- 69
2019-06-05 18:00:00 9 8 Oeste 22 Oeste 0.2 -- -- 80
2019-06-05 17:00:00 8.1 4 Sudoeste 32 Oeste 0.2 -- -- 92
2019-06-05 16:00:00 9.9 7 Oeste 28 Oeste 0.2 -- -- 78
2019-06-05 15:00:00 9.6 9 Sudoeste 32 Oeste 0 -- -- 79
2019-06-05 14:00:00 10 10 Noroeste 24 Oeste 0 -- -- 70
2019-06-05 13:00:00 9.9 11 Oeste 24 Sur 0 -- -- 73
2019-06-05 12:00:00 7.8 5 Noroeste 17 Sudoeste 0 -- -- 84
2019-06-05 11:00:00 7 3 Oeste 17 Oeste 0.2 -- -- 93
2019-06-05 10:00:00 6.2 4 Noroeste 23 Noroeste 0.6 -- -- 95
2019-06-05 09:00:00 6.1 0 Calma 15 Noroeste 0 -- -- 95
2019-06-05 08:00:00 5.9 3 Noroeste 13 Oeste 0 -- -- 95
2019-06-05 07:00:00 5.7 5 Norte 16 Noroeste 0 -- -- 94
2019-06-05 06:00:00 5.8 4 Noroeste 22 Noroeste 0 -- -- 94
2019-06-05 05:00:00 6.1 5 Noroeste 16 Norte 0 -- -- 93
2019-06-05 04:00:00 6.2 5 Noroeste 13 Noroeste 0 -- -- 94
2019-06-05 03:00:00 6.2 4 Noroeste 18 Noroeste 0.2 -- -- 94
2019-06-05 02:00:00 6.5 7 Noroeste 19 Noroeste 0 -- -- 91
2019-06-05 01:00:00 7 8 Noroeste 17 Noroeste 0 -- -- 91
2019-06-05 00:00:00 7.6 3 Noroeste 20 Oeste 0 -- -- 89
2019-06-04 23:00:00 8 4 Oeste 21 Noroeste 0 -- -- 84
2019-06-04 22:00:00 8.6 7 Noroeste 20 Noroeste 0 -- -- 82
2019-06-04 21:00:00 9.5 9 Oeste 27 Noroeste 0 -- -- 78
2019-06-04 20:00:00 10.7 9 Noroeste 25 Noroeste 0 -- -- 74
2019-06-04 19:00:00 12.9 8 Oeste 27 Oeste 0 -- -- 59
2019-06-04 18:00:00 12.5 8 Oeste 30 Sudoeste 0 -- -- 65
2019-06-04 17:00:00 13.8 12 Oeste 29 Oeste 0 -- -- 59
2019-06-04 16:00:00 13.2 12 Oeste 30 Oeste 0 -- -- 65
2019-06-04 15:00:00 13.5 11 Sudoeste 25 Sudoeste 0 -- -- 71
2019-06-04 14:00:00 9.9 6 Oeste 23 Oeste 0 -- -- 83
2019-06-04 13:00:00 10.5 4 Oeste 27 Oeste 0.4 -- -- 94
2019-06-04 12:00:00 11.2 7 Oeste 23 Oeste 1.6 -- -- 93
2019-06-04 11:00:00 11.1 8 Sudoeste 24 Sudoeste 0 -- -- 94
2019-06-04 10:00:00 11.3 8 Sudoeste 22 Sur 0 -- -- 91
2019-06-04 09:00:00 10.9 10 Sur 21 Sur 0 -- -- 89
2019-06-04 08:00:00 10.5 14 Sur 33 Sudoeste 0 -- -- 85
2019-06-04 07:00:00 10.3 21 Sur 37 Sur 0 -- -- 84
2019-06-04 06:00:00 9.6 16 Sur 35 Sudoeste 0 -- -- 81
2019-06-04 05:00:00 9.2 9 Sudoeste 20 Sur 0 -- -- 83
2019-06-04 04:00:00 9.8 8 Sudoeste 38 Oeste 0 -- -- 85
2019-06-04 03:00:00 10.7 14 Oeste 28 Oeste 0 -- -- 83
2019-06-04 02:00:00 11.7 10 Sudoeste 23 Sudoeste 0 -- -- 84
2019-06-04 01:00:00 12.7 13 Sur 24 Sur 0 -- -- 79
2019-06-04 00:00:00 12.9 4 Oeste 14 Oeste 0 -- -- 84
2019-06-03 23:00:00 13.7 6 Sudoeste 19 Sudoeste 0 -- -- 81
2019-06-03 22:00:00 14.7 9 Sudoeste 22 Sudoeste 0 -- -- 77
2019-06-03 21:00:00 16 9 Sudoeste 20 Oeste 0 -- -- 74
2019-06-03 20:00:00 17.1 11 Oeste 25 Oeste 0 -- -- 74
2019-06-03 19:00:00 18.3 11 Oeste 30 Sudoeste 0 -- -- 74
2019-06-03 18:00:00 19.3 16 Sudoeste 33 Oeste 0 -- -- 66
2019-06-03 17:00:00 20.8 22 Oeste 33 Sudoeste 0 -- -- 60
2019-06-03 16:00:00 20.5 13 Oeste 31 Oeste 0 -- -- 64
2019-06-03 15:00:00 21.5 17 Sudoeste 33 Sudoeste 0 -- -- 58
2019-06-03 14:00:00 20.9 15 Oeste 30 Sudoeste 0 -- -- 58
2019-06-03 13:00:00 20.7 10 Sudoeste 21 Oeste 0 -- -- 58
2019-06-03 12:00:00 19 6 Sudoeste 15 Oeste 0 -- -- 66
2019-06-03 11:00:00 17.4 4 Noroeste 12 Nordeste 0 -- -- 75
2019-06-03 10:00:00 15.2 0 Calma 10 Sudeste 0 -- -- 79
2019-06-03 09:00:00 12.8 2 Sudoeste 6 Oeste 0 -- -- 73
2019-06-03 08:00:00 12.1 3 Sudoeste 7 Oeste 0 -- -- 71
2019-06-03 07:00:00 11.7 3 Sur 6 Sudoeste 0 -- -- 74
2019-06-03 06:00:00 11.3 3 Sur 7 Sur 0 -- -- 76
2019-06-03 05:00:00 11.6 3 Sur 10 Sur 0 -- -- 75
2019-06-03 04:00:00 12 6 Sur 10 Sur 0 -- -- 70
2019-06-03 03:00:00 12.8 2 Sur 13 Oeste 0 -- -- 71
2019-06-03 02:00:00 14 2 Sudoeste 14 Sudeste 0 -- -- 70
2019-06-03 01:00:00 14.9 3 Sur 14 Sudoeste 0 -- -- 70
2019-06-03 00:00:00 15.4 0 Calma 7 Noroeste 0 -- -- 67
2019-06-02 23:00:00 16.3 2 Noroeste 8 Oeste 0 -- -- 65
2019-06-02 22:00:00 17.7 0 Calma 13 Norte 0 -- -- 60
2019-06-02 21:00:00 19.2 3 Norte 13 Oeste 0 -- -- 51
2019-06-02 20:00:00 20.1 5 Oeste 23 Oeste 0 -- -- 45
2019-06-02 19:00:00 20.3 7 Oeste 21 Oeste 0 -- -- 49
2019-06-02 18:00:00 21.1 8 Oeste 23 Noroeste 0 -- -- 48
2019-06-02 17:00:00 23.4 7 Oeste 29 Sudoeste 0 -- -- 40
2019-06-02 16:00:00 24.5 17 Sudoeste 33 Sur 0 -- -- 33
2019-06-02 15:00:00 24.4 15 Sudoeste 36 Sudoeste 0 -- -- 34
2019-06-02 14:00:00 23 15 Sudoeste 32 Sudoeste 0 -- -- 36
2019-06-02 13:00:00 23.4 17 Sudoeste 32 Sur 0 -- -- 35
2019-06-02 12:00:00 22.4 14 Sur 26 Sur 0 -- -- 39
2019-06-02 11:00:00 19.7 9 Sudoeste 23 Sudoeste 0 -- -- 42
2019-06-02 10:00:00 14 0 Calma 8 Oeste 0 -- -- 59
2019-06-02 09:00:00 11.4 4 Oeste 10 Oeste 0 -- -- 62
2019-06-02 08:00:00 9.1 6 Sudoeste 13 Oeste 0 -- -- 70
2019-06-02 07:00:00 8.3 6 Sudoeste 12 Oeste 0 -- -- 73
2019-06-02 06:00:00 8.5 5 Sudoeste 12 Sudoeste 0 -- -- 75
2019-06-02 05:00:00 9.1 7 Sudoeste 12 Oeste 0 -- -- 75
2019-06-02 04:00:00 9.8 4 Sudoeste 9 Sudoeste 0 -- -- 75
2019-06-02 03:00:00 10.6 4 Sudoeste 9 Oeste 0 -- -- 71
2019-06-02 02:00:00 11.5 5 Sudoeste 7 Sudoeste 0 -- -- 69
2019-06-02 01:00:00 12.8 4 Sur 19 Sur 0 -- -- 59
2019-06-02 00:00:00 14.5 9 Sur 15 Sur 0 -- -- 55
2019-06-01 23:00:00 17.6 2 Sur 12 Sur 0 -- -- 50
2019-06-01 22:00:00 20.8 0 Calma 13 Oeste 0 -- -- 44
2019-06-01 21:00:00 23.2 6 Oeste 18 Oeste 0 -- -- 38
2019-06-01 20:00:00 24.6 6 Noroeste 23 Oeste 0 -- -- 38
2019-06-01 19:00:00 25.4 9 Oeste 23 Sudoeste 0 -- -- 33
2019-06-01 18:00:00 26.6 10 Oeste 28 Sudoeste 0 -- -- 33
2019-06-01 17:00:00 27.1 10 Oeste 26 Sudoeste 0 -- -- 33
2019-06-01 16:00:00 27.5 8 Oeste 24 Oeste 0 -- -- 33
2019-06-01 15:00:00 28.5 16 Sudoeste 34 Sudoeste 0 -- -- 33
2019-06-01 14:00:00 27.7 17 Sudoeste 32 Oeste 0 -- -- 33
2019-06-01 13:00:00 27.1 6 Oeste 26 Oeste 0 -- -- 31
2019-06-01 12:00:00 25.5 10 Sudoeste 23 Sur 0 -- -- 35
2019-06-01 11:00:00 21.2 9 Norte 12 Norte 0 -- -- 61
2019-06-01 10:00:00 16.7 0 Calma 4 Noroeste 0 -- -- 72
2019-06-01 09:00:00 14.8 0 Calma 6 Oeste 0 -- -- 76
2019-06-01 08:00:00 11.6 3 Sudoeste 8 Sudoeste 0 -- -- 87
2019-06-01 07:00:00 11.6 4 Oeste 11 Sudoeste 0 -- -- 86
2019-06-01 06:00:00 12.1 5 Sudoeste 9 Sudoeste 0 -- -- 85
2019-06-01 05:00:00 12.6 5 Sudoeste 9 Sudoeste 0 -- -- 84
2019-06-01 04:00:00 13.2 6 Sudoeste 13 Sudoeste 0 -- -- 82
2019-06-01 03:00:00 14.1 5 Sudoeste 10 Sudoeste 0 -- -- 81
2019-06-01 02:00:00 15 4 Sudoeste 10 Sur 0 -- -- 78
2019-06-01 01:00:00 15.8 7 Sudoeste 15 Sur 0 -- -- 75
2019-06-01 00:00:00 17.3 11 Sur 17 Sur 0 -- -- 68
2019-05-31 23:00:00 20 3 Sur 8 Oeste 0 -- -- 59
2019-05-31 22:00:00 22.5 5 Noroeste 17 Oeste 0 -- -- 49
2019-05-31 21:00:00 25.1 4 Noroeste 18 Norte 0 -- -- 38
2019-05-31 20:00:00 26.1 7 Noroeste 18 Norte 0 -- -- 38
2019-05-31 19:00:00 26.7 6 Noroeste 17 Norte 0 -- -- 38
2019-05-31 18:00:00 27.1 6 Norte 17 Noroeste 0 -- -- 36
2019-05-31 17:00:00 28.9 4 Noroeste 24 Norte 0 -- -- 32
2019-05-31 16:00:00 28.7 6 Noroeste 16 Oeste 0 -- -- 36
2019-05-31 15:00:00 28.1 4 Oeste 22 Noroeste 0 -- -- 37
2019-05-31 14:00:00 27.4 6 Este 22 Norte 0 -- -- 35
2019-05-31 13:00:00 26.5 5 Sudeste 17 Sur 0 -- -- 33
2019-05-31 12:00:00 24.4 3 Norte 10 Norte 0 -- -- 50
2019-05-31 11:00:00 20.1 8 Norte 13 Nordeste 0 -- -- 62
2019-05-31 10:00:00 17.1 8 Nordeste 10 Nordeste 0 -- -- 68
2019-05-31 09:00:00 16.2 0 Calma 4 Oeste 0 -- -- 66
2019-05-31 08:00:00 11.7 2 Sudoeste 5 Oeste 0 -- -- 80
2019-05-31 07:00:00 12.4 0 Calma 4 Norte 0 -- -- 79
2019-05-31 06:00:00 13.8 2 Noroeste 15 Oeste 0 -- -- 69
2019-05-31 05:00:00 13.4 5 Sudoeste 17 Sudoeste 0 -- -- 76
2019-05-31 04:00:00 12.7 5 Sudoeste 14 Oeste 0 -- -- 83
2019-05-31 03:00:00 13 4 Sudoeste 7 Sudoeste 0 -- -- 82
2019-05-31 02:00:00 14.1 3 Sudoeste 9 Sudoeste 0 -- -- 76
2019-05-31 01:00:00 15.1 3 Sur 12 Sur 0 -- -- 73
2019-05-31 00:00:00 16.3 8 Sur 12 Sur 0 -- -- 68
2019-05-30 23:00:00 18.3 7 Sur 13 Sur 0 -- -- 62
2019-05-30 22:00:00 21.4 3 Sudoeste 12 Norte 0 -- -- 52
2019-05-30 21:00:00 23.5 6 Norte 22 Norte 0 -- -- 45
2019-05-30 20:00:00 24.7 10 Norte 25 Norte 0 -- -- 42
2019-05-30 19:00:00 25.3 11 Norte 23 Norte 0 -- -- 40
2019-05-30 18:00:00 25.9 10 Norte 26 Norte 0 -- -- 38
2019-05-30 17:00:00 26.7 10 Norte 24 Norte 0 -- -- 34
2019-05-30 16:00:00 26.5 11 Norte 26 Norte 0 -- -- 32
2019-05-30 15:00:00 25.7 10 Norte 22 Nordeste 0 -- -- 34
2019-05-30 14:00:00 25.1 9 Norte 21 Norte 0 -- -- 41
2019-05-30 13:00:00 23.9 5 Nordeste 14 Norte 0 -- -- 43
2019-05-30 12:00:00 21.2 4 Nordeste 10 Norte 0 -- -- 58
2019-05-30 11:00:00 18 8 Norte 10 Norte 0 -- -- 63
2019-05-30 10:00:00 14.8 0 Calma 4 Nordeste 0 -- -- 72
2019-05-30 09:00:00 12.9 0 Calma 5 Sur 0 -- -- 75
2019-05-30 08:00:00 8.9 2 Sudeste 4 Sur 0 -- -- 89
2019-05-30 07:00:00 9.1 2 Sur 4 Sur 0 -- -- 91
2019-05-30 06:00:00 9.9 2 Sur 3 Sur 0 -- -- 87
2019-05-30 05:00:00 10.9 0 Calma 3 Oeste 0 -- -- 85
2019-05-30 04:00:00 10.8 3 Sudoeste 5 Sudoeste 0 -- -- 91
2019-05-30 03:00:00 11.2 0 Calma 8 Sudoeste 0 -- -- 88
2019-05-30 02:00:00 12.1 3 Sudoeste 9 Oeste 0 -- -- 84
2019-05-30 01:00:00 12.9 4 Sudoeste 6 Sudoeste 0 -- -- 77
2019-05-30 00:00:00 13.8 3 Sur 16 Sur 0 -- -- 75
2019-05-29 23:00:00 16 9 Sur 14 Sur 0 -- -- 68
2019-05-29 22:00:00 18.4 2 Noroeste 14 Norte 0 -- -- 62
2019-05-29 21:00:00 20.5 7 Norte 16 Nordeste 0 -- -- 56
2019-05-29 20:00:00 21.8 6 Norte 18 Noroeste 0 -- -- 46
2019-05-29 19:00:00 22.3 7 Norte 18 Norte 0 -- -- 44
2019-05-29 18:00:00 22.3 8 Norte 26 Norte 0 -- -- 48
2019-05-29 17:00:00 23.1 10 Norte 22 Norte 0 -- -- 45
2019-05-29 16:00:00 22.6 9 Norte 24 Norte 0 -- -- 44
2019-05-29 15:00:00 21.9 10 Norte 27 Norte 0 -- -- 42
2019-05-29 14:00:00 21 10 Norte 26 Nordeste 0 -- -- 42
2019-05-29 13:00:00 19.6 12 Norte 25 Nordeste 0 -- -- 49
2019-05-29 12:00:00 17.9 6 Nordeste 14 Nordeste 0 -- -- 58
2019-05-29 11:00:00 14.1 4 Norte 8 Nordeste 0 -- -- 72
2019-05-29 10:00:00 10.3 2 Sur 4 Sudeste 0 -- -- 78
2019-05-29 09:00:00 8.1 0 Calma 8 Sudoeste 0 -- -- 80
2019-05-29 08:00:00 4 3 Sur 5 Oeste 0 -- -- 95
2019-05-29 07:00:00 4.1 3 Oeste 7 Sudoeste 0 -- -- 96
2019-05-29 06:00:00 4.3 3 Sur 6 Sudoeste 0 -- -- 94
2019-05-29 05:00:00 4.8 2 Sudoeste 5 Sudoeste 0 -- -- 95
2019-05-29 04:00:00 5.4 2 Sudoeste 6 Sur 0 -- -- 94
2019-05-29 03:00:00 6 2 Sur 5 Sudoeste 0 -- -- 93
2019-05-29 02:00:00 6.6 0 Calma 4 Sudoeste 0 -- -- 90
2019-05-29 01:00:00 7.5 3 Sur 7 Sudoeste 0 -- -- 83
2019-05-29 00:00:00 8.8 2 Sur 5 Sur 0 -- -- 77
2019-05-28 23:00:00 10.4 0 Calma 5 Nordeste 0 -- -- 73
2019-05-28 22:00:00 12 4 Nordeste 21 Nordeste 0 -- -- 66
2019-05-28 21:00:00 14.1 5 Norte 24 Norte 0 -- -- 59
2019-05-28 20:00:00 15 11 Norte 29 Norte 0 -- -- 55
2019-05-28 19:00:00 16.1 9 Nordeste 31 Norte 0 -- -- 53
2019-05-28 18:00:00 17.2 10 Norte 27 Noroeste 0 -- -- 53
2019-05-28 17:00:00 17.5 13 Norte 31 Norte 0 -- -- 54
2019-05-28 16:00:00 17.5 10 Norte 23 Norte 0 -- -- 54
2019-05-28 15:00:00 17.2 9 Norte 21 Nordeste 0 -- -- 55
2019-05-28 14:00:00 16.1 8 Norte 18 Nordeste 0 -- -- 57
2019-05-28 13:00:00 14.5 9 Nordeste 19 Norte 0 -- -- 59
2019-05-28 12:00:00 13.9 9 Nordeste 19 Nordeste 0 -- -- 57
2019-05-28 11:00:00 11.7 5 Norte 10 Nordeste 0 -- -- 60
2019-05-28 10:00:00 9.1 5 Nordeste 11 Norte 0 -- -- 66
2019-05-28 09:00:00 7.6 0 Calma 5 Sudeste 0 -- -- 81
2019-05-28 08:00:00 3.2 3 Sur 4 Sur 0 -- -- 97
2019-05-28 07:00:00 3.2 2 Sudoeste 6 Sur 0 -- -- 97
2019-05-28 06:00:00 3.4 0 Calma 6 Sur 0 -- -- 94
2019-05-28 05:00:00 4.1 3 Sur 6 Sur 0 -- -- 95
2019-05-28 04:00:00 5.1 3 Sur 7 Sudoeste 0 -- -- 95
2019-05-28 03:00:00 5.4 2 Sur 8 Sudoeste 0 -- -- 94
2019-05-28 02:00:00 6.2 0 Calma 6 Sudoeste 0 -- -- 92
2019-05-28 01:00:00 7.1 2 Sur 5 Sudoeste 0 -- -- 87
2019-05-28 00:00:00 8.3 0 Calma 9 Sur 0 -- -- 84
2019-05-27 23:00:00 9.8 0 Calma 14 Norte 0 -- -- 80
2019-05-27 22:00:00 11.7 5 Norte 15 Norte 0 -- -- 71
2019-05-27 21:00:00 13.7 5 Norte 24 Norte 0 -- -- 67
2019-05-27 20:00:00 15.7 10 Norte 26 Nordeste 0 -- -- 65
2019-05-27 19:00:00 16.4 10 Norte 30 Noroeste 0 -- -- 63
2019-05-27 18:00:00 17.5 15 Norte 33 Norte 0 -- -- 59
2019-05-27 17:00:00 18.4 9 Norte 23 Norte 0 -- -- 59
2019-05-27 16:00:00 18.2 10 Norte 25 Noroeste 0 -- -- 61
2019-05-27 15:00:00 17.3 8 Norte 24 Norte 0 -- -- 62
2019-05-27 14:00:00 16.1 13 Norte 26 Norte 0 -- -- 65
2019-05-27 13:00:00 15.2 7 Norte 21 Nordeste 0 -- -- 74
2019-05-27 12:00:00 15.9 10 Norte 23 Norte 0 -- -- 73
2019-05-27 11:00:00 15.3 8 Norte 16 Nordeste 0 -- -- 75
2019-05-27 10:00:00 13.7 5 Norte 10 Nordeste 0 -- -- 77
2019-05-27 09:00:00 10.7 0 Calma 4 Este 0 -- -- 90
2019-05-27 08:00:00 8.4 3 Sur 4 Sudeste 0 -- -- 96
2019-05-27 07:00:00 8 0 Calma 5 Sudoeste 0 -- -- 96
2019-05-27 06:00:00 8.3 3 Sudoeste 5 Oeste 0 -- -- 95
2019-05-27 05:00:00 8.6 0 Calma 12 Sur 0 -- -- 96
2019-05-27 04:00:00 8.8 4 Sur 9 Sur 0 -- -- 93
2019-05-27 03:00:00 9.5 5 Sur 8 Sudeste 0 -- -- 90
2019-05-27 02:00:00 10.2 3 Sur 9 Sur 0 -- -- 87
2019-05-27 01:00:00 11.1 4 Sur 8 Sudeste 0 -- -- 85
2019-05-27 00:00:00 12.7 0 Calma 7 Norte 0 -- -- 80
2019-05-26 23:00:00 14.3 0 Calma 14 Nordeste 0 -- -- 77
2019-05-26 22:00:00 15.7 5 Nordeste 14 Nordeste 0 -- -- 71
2019-05-26 21:00:00 17.9 3 Nordeste 21 Noroeste 0 -- -- 58
2019-05-26 20:00:00 18.8 8 Norte 24 Norte 0 -- -- 57
2019-05-26 19:00:00 19.6 11 Norte 25 Norte 0 -- -- 51
2019-05-26 18:00:00 20.7 7 Norte 24 Norte 0 -- -- 48
2019-05-26 17:00:00 21.6 11 Norte 28 Norte 0 -- -- 49
2019-05-26 16:00:00 21 9 Norte 23 Norte 0 -- -- 52
2019-05-26 15:00:00 21.9 6 Nordeste 18 Nordeste 0 -- -- 43
2019-05-26 14:00:00 21.3 7 Nordeste 20 Norte 0 -- -- 45
2019-05-26 13:00:00 20.2 7 Nordeste 19 Nordeste 0 -- -- 47
2019-05-26 12:00:00 19 8 Nordeste 21 Nordeste 0 -- -- 51
2019-05-26 11:00:00 17.4 7 Nordeste 17 Nordeste 0 -- -- 51
2019-05-26 10:00:00 13 0 Calma 4 Sudeste 0 -- -- 73
2019-05-26 09:00:00 10.7 3 Sur 5 Sudoeste 0 -- -- 79
2019-05-26 08:00:00 6.4 4 Sudoeste 7 Sudoeste 0 -- -- 97
2019-05-26 07:00:00 6.4 4 Sudoeste 7 Sur 0 -- -- 95
2019-05-26 06:00:00 6.9 4 Sudoeste 8 Sudoeste 0 -- -- 96
2019-05-26 05:00:00 7.2 4 Sur 9 Sur 0 -- -- 92
2019-05-26 04:00:00 7.4 6 Sur 10 Sur 0 -- -- 93
2019-05-26 03:00:00 7.9 3 Sur 6 Sur 0 -- -- 91
2019-05-26 02:00:00 8.7 3 Sur 10 Sur 0 -- -- 88
2019-05-26 01:00:00 9.1 3 Sur 12 Sur 0 -- -- 88
2019-05-26 00:00:00 10.4 4 Sur 7 Sur 0 -- -- 84
2019-05-25 23:00:00 11.8 0 Calma 9 Norte 0 -- -- 80
2019-05-25 22:00:00 13.4 4 Nordeste 18 Nordeste 0 -- -- 73
2019-05-25 21:00:00 15.5 7 Norte 21 Noroeste 0 -- -- 67
2019-05-25 20:00:00 17.4 8 Norte 21 Norte 0 -- -- 63
2019-05-25 19:00:00 18.3 9 Norte 22 Norte 0 -- -- 61
2019-05-25 18:00:00 19 10 Norte 24 Norte 0 -- -- 57
2019-05-25 17:00:00 19.5 9 Noroeste 22 Noroeste 0 -- -- 52
2019-05-25 16:00:00 19.2 8 Norte 22 Noroeste 0 -- -- 51
2019-05-25 15:00:00 17.9 10 Nordeste 21 Nordeste 0 -- -- 55
2019-05-25 14:00:00 17.2 10 Norte 22 Nordeste 0 -- -- 54
2019-05-25 13:00:00 16.6 10 Nordeste 22 Nordeste 0 -- -- 55
2019-05-25 12:00:00 15.3 8 Norte 18 Norte 0 -- -- 59
2019-05-25 11:00:00 13.5 6 Nordeste 16 Nordeste 0 -- -- 69
2019-05-25 10:00:00 10.1 4 Nordeste 8 Norte 0 -- -- 80
2019-05-25 09:00:00 7.6 2 Sur 4 Sur 0 -- -- 86
2019-05-25 08:00:00 4.2 0 Calma 5 Sur 0 -- -- 99
2019-05-25 07:00:00 4.2 0 Calma 8 Sur 0 -- -- 99
2019-05-25 06:00:00 4.3 4 Sur 5 Sur 0 -- -- 97
2019-05-25 05:00:00 5.2 0 Calma 6 Sudoeste 0 -- -- 98
2019-05-25 04:00:00 5.3 3 Sur 5 Sur 0 -- -- 96
2019-05-25 03:00:00 5.9 2 Sur 4 Sur 0 -- -- 95
2019-05-25 02:00:00 6.5 2 Sur 4 Sur 0 -- -- 93
2019-05-25 01:00:00 7.3 0 Calma 2 Sudoeste 0 -- -- 91
2019-05-25 00:00:00 8.3 3 Noroeste 6 Nordeste 0 -- -- 90